Metar Cercanos

 

LEPA - Palma De Mallorc, Spain
Distance from station: ONO 38km
Actualización: 21/06/2018 08:00
Despejado
Despejado
 Viento del ENE
Viento: ENE 6 km/h
Temperatura: 21°C
Rocío: 18°C
Humedad: 83%
Barómetro: 1017 hPa
Resumen: Despejado
Visibility: greater than 10 km
2018/06/21 06:00 LEPA 210600Z 07003KT CAVOK 21/18 Q1017 NOSIG
LEMH - Mahon/Menorca Is, Spain
Distance from station: ENE 105km
Actualización: 21/06/2018 08:00
Few Clouds
Few Clouds
 Viento del NNE
Viento: NNE 9 km/h
Temperatura: 22°C
Rocío: 19°C
Humedad: 83%
Barómetro: 1018 hPa
Clouds: Few Clouds
Visibility: 10 km
Cloud details: Few Clouds 610 m
2018/06/21 06:00 LEMH 210600Z 03005KT 010V070 9999 FEW020 22/19 Q1018
 
LEIB - Ibiza/Es Codola, Spain
Distance from station: OSO 165km
Actualización: 21/06/2018 08:00
Despejado
Despejado
 Viento del varies
Viento: varies 2 km/h
Temperatura: 23°C
Rocío: 16°C
Humedad: 65%
Barómetro: 1017 hPa
Resumen: Despejado
Visibility: greater than 10 km
2018/06/21 06:00 LEIB 210600Z VRB01KT CAVOK 23/16 Q1017 NOSIG
LEBL - Barcelona Airpor, Spain
Distance from station: NNO 225km
Actualización: 21/06/2018 08:00
Despejado
Despejado
 Viento del NNO
Viento: NNO 15 km/h
Temperatura: 21°C
Rocío: 14°C
Humedad: 64%
Barómetro: 1018 hPa
Resumen: Despejado
Visibility: greater than 10 km
2018/06/21 06:00 LEBL 210600Z 33008KT 290V360 CAVOK 21/14 Q1018 NOSIG
 
LEVC - Valencia (civ/Mi, Spain
Distance from station: NO 188km
Actualización: 21/06/2018 08:00
Despejado
Despejado
 Viento del O
Viento: O 7 km/h
Temperatura: 21°C
Rocío: 14°C
Humedad: 64%
Barómetro: 1018 hPa
Resumen: Despejado
Visibility: greater than 10 km
2018/06/21 06:00 LEVC 210600Z 26004KT CAVOK 21/14 Q1018 NOSIG
LEGE - Gerona/Costa Bra, Spain
Distance from station: N 276km
Actualización: 21/06/2018 08:00
Despejado
Despejado
 Viento del NE
Viento: NE 6 km/h
Temperatura: 19°C
Rocío: 14°C
Humedad: 73%
Barómetro: 1018 hPa
Resumen: Despejado
Visibility: greater than 10 km
2018/06/21 06:00 LEGE 210600Z 05003KT CAVOK 19/14 Q1018
 
LEAL - Alicante/El Alte, Spain
Distance from station: OSO 344km
Actualización: 21/06/2018 08:00
Despejado
Despejado
 Viento del NO
Viento: NO 7 km/h
Temperatura: 23°C
Rocío: 15°C
Humedad: 61%
Barómetro: 1017 hPa
Resumen: Despejado
Visibility: greater than 10 km
2018/06/21 06:00 LEAL 210600Z 32004KT 290V360 CAVOK 23/15 Q1017 NOSIG
LEAM - Almeria Airport, Spain
Distance from station: SSO 56km
Actualización: 21/06/2018 08:00
Despejado
Despejado
 Viento del N
Viento: N 7 km/h
Temperatura: 24°C
Rocío: 13°C
Humedad: 50%
Barómetro: 1016 hPa
Resumen: Despejado
Visibility: greater than 10 km
2018/06/21 06:00 LEAM 210600Z 35004KT 300V050 CAVOK 24/13 Q1016
 
LEZG - Zaragoza (mil/Ci, Spain
Distance from station: NO 431km
Actualización: 21/06/2018 08:00
Despejado
Despejado
 Viento del calm
Viento: Calma
Temperatura: 21°C
Rocío: 13°C
Humedad: 60%
Barómetro: 1019 hPa
Resumen: Despejado
Visibility: greater than 10 km
2018/06/21 06:00 LEZG 210600Z 00000KT CAVOK 21/13 Q1019
LEMD - Madrid/Barajas, Spain
Distance from station: ONO 234km
Actualización: 21/06/2018 08:00
Despejado
Despejado
 Viento del varies
Viento: varies 4 km/h
Temperatura: 20°C
Rocío: 16°C
Humedad: 78%
Barómetro: 1020 hPa
Resumen: Despejado
Visibility: greater than 10 km
2018/06/21 06:00 LEMD 210600Z VRB02KT CAVOK 20/16 Q1020 NOSIG
 
LEGR - Granada Airport, Spain
Distance from station: OSO 62km
Actualización: 21/06/2018 08:00
Few Clouds
Few Clouds
 Viento del calm
Viento: Calma
Temperatura: 18°C
Rocío: 11°C
Humedad: 64%
Barómetro: 1019 hPa
Clouds: Few Clouds
Visibility: 10 km
Cloud details: Few Clouds 2743 m
2018/06/21 06:00 LEGR 210600Z 00000KT 9999 FEW090 18/11 Q1019
LEMG - Malaga (civ/Mil), Spain
Distance from station: OSO 227km
Actualización: 21/06/2018 08:00
Despejado
Despejado
 Viento del varies
Viento: varies 2 km/h
Temperatura: 22°C
Rocío: 16°C
Humedad: 69%
Barómetro: 1017 hPa
Resumen: Despejado
Visibility: greater than 10 km
2018/06/21 06:00 LEMG 210600Z VRB01KT CAVOK 22/16 Q1017 NOSIG
 
LEZL - Sevilla (civ/Mil, Spain
Distance from station: S 318km
Actualización: 21/06/2018 08:00
Drizzle, Parcialmente nuboso
Drizzle, Parcialmente nuboso
 Viento del NNE
Viento: NNE 13 km/h, Racha: 31 km/h
Temperatura: 21°C
Rocío: 18°C
Humedad: 83%
Barómetro: 1014 hPa
Resumen: Drizzle
Clouds: Parcialmente nuboso
Visibility: 10 km
2018/06/21 06:00 LEZL 210600Z 02007G17KT 350V050 9999 DZ NSC 21/18 Q1014 NOSIG
LEVT - Vitoria, Spain
Distance from station: NO 226km
Actualización: 21/06/2018 08:00
Muy nuboso
Muy nuboso
 Viento del NE
Viento: NE 11 km/h
Temperatura: 17°C
Rocío: 16°C
Humedad: 94%
Barómetro: 1021 hPa
Clouds: Muy nuboso
Visibility: 7 km
Cloud details: Parcialmente nuboso 91 m
Muy nuboso 213 m
2018/06/21 06:00 LEVT 210600Z 05006KT 020V080 7000 SCT003 BKN007 17/16 Q1021
 
LEBB - Bilbao/Sondica, Spain
Distance from station: NNO 235km
Actualización: 21/06/2018 08:00
Muy nuboso
Muy nuboso
 Viento del varies
Viento: varies 4 km/h
Temperatura: 20°C
Rocío: 19°C
Humedad: 94%
Barómetro: 1020 hPa
Clouds: Muy nuboso
Visibility: 7 km
Cloud details: Few Clouds 366 m
Muy nuboso 518 m
2018/06/21 06:00 LEBB 210600Z VRB02KT 7000 FEW012 BKN017 20/19 Q1020 TEMPO 3000 BR BKN014
LESO - San Sebastian/Fu, Spain
Distance from station: N 231km
Actualización: 21/06/2018 08:00
Cubierto
Cubierto
 Viento del varies
Viento: varies 4 km/h
Temperatura: 21°C
Rocío: 18°C
Humedad: 83%
Barómetro: 1020 hPa
Clouds: Cubierto
Visibility: 10 km
Cloud details: Parcialmente nuboso 396 m
Cubierto 518 m
2018/06/21 06:00 LESO 210600Z VRB02KT 9999 SCT013 OVC017 21/18 Q1020
 
LEVD - Valladolid(Mil/C, Spain
Distance from station: ONO 239km
Actualización: 21/06/2018 08:00
Despejado
Despejado
 Viento del calm
Viento: Calma
Temperatura: 18°C
Rocío: 15°C
Humedad: 83%
Barómetro: 1020 hPa
Resumen: Despejado
Visibility: greater than 10 km
2018/06/21 06:00 LEVD 210600Z 00000KT CAVOK 18/15 Q1020
LESA - Salamanca (civ/M, Spain
Distance from station: ONO 349km
Actualización: 21/06/2018 08:00
Despejado
Despejado
 Viento del NE
Viento: NE 4 km/h
Temperatura: 17°C
Rocío: 15°C
Humedad: 88%
Barómetro: 1020 hPa
Resumen: Despejado
Visibility: greater than 10 km
2018/06/21 06:00 LESA 210600Z 04002KT CAVOK 17/15 Q1020
 
LEXJ - Santander/Paraya, Spain
Distance from station: NNO 247km
Actualización: 21/06/2018 08:00
Cubierto
Cubierto
 Viento del ONO
Viento: ONO 6 km/h
Temperatura: 20°C
Rocío: 19°C
Humedad: 94%
Barómetro: 1020 hPa
Clouds: Cubierto
Visibility: 7 km
Cloud details: Few Clouds 427 m
Cubierto 549 m
2018/06/21 06:00 LEXJ 210600Z 29003KT 7000 FEW014 OVC018 20/19 Q1020
LEAS - Asturias/Aviles, Spain
Distance from station: NO 214km
Actualización: 21/06/2018 08:00
Patches of fog, Light drizzle, Muy nuboso
Patches of fog, Light drizzle, Muy nuboso
 Viento del calm
Viento: Calma
Temperatura: 18°C
Rocío: 18°C
Humedad: 100%
Barómetro: 1021 hPa
Resumen: Patches of fog, Light drizzle
Clouds: Muy nuboso
Visibility: 1 km
Cloud details: Muy nuboso 30 m
Muy nuboso 122 m
2018/06/21 06:00 LEAS 210600Z 00000KT 1400 0700NW R29/1900U R11/1300U BCFG -DZ BKN001 BKN004 18/18 Q1021 TEMPO 0350 FG VV001
 
LECO - La Coruna/Alvedr, Spain
Distance from station: ONO 222km
Actualización: 21/06/2018 08:00
Nearby fog, Few clouds
Nearby fog, Few clouds
 Viento del NNO
Viento: NNO 6 km/h
Temperatura: 17°C
Rocío: 17°C
Humedad: 100%
Barómetro: 1019 hPa
Resumen: Nearby Fog
Clouds: Few Clouds
Visibility: 10 km
Cloud details: Few Clouds 274 m
2018/06/21 06:00 LECO 210600Z 34003KT 9999 3000NE VCFG FEW009 17/17 Q1019 TEMPO 3000 BR
LEVX - Vigo/Peinador, Spain
Distance from station: O 214km
Actualización: 21/06/2018 08:00
Despejado
Despejado
 Viento del calm
Viento: Calma
Temperatura: 20°C
Rocío: 18°C
Humedad: 88%
Barómetro: 1018 hPa
Resumen: Despejado
Visibility: greater than 10 km
2018/06/21 06:00 LEVX 210600Z 00000KT CAVOK 20/18 Q1018 NOSIG